Time;durP1;ratioP1;P1;durP2;ratioP2;P2;SDS_P1;SDS_P2;PMS_P1;PMS_P2;Temp;Humidity;BMP_temperature;BMP_pressure;BME280_temperature;BME280_humidity;BME280_pressure;Samples;Min_cycle;Max_cycle;Signal;HPM_P1;HPM_P2
2022/01/19 00:01:49;;;;;;;29.67;10.30;;;1.30;71.60;;;;;;4994189;28;19918;-91
2022/01/19 00:04:15;;;;;;;;;;;1.40;71.40;;;;;;5005700;28;20139;-91
2022/01/19 00:06:41;;;;;;;30.60;9.53;;;1.30;71.50;;;;;;5006278;28;19998;-91
2022/01/19 00:09:06;;;;;;;17.95;7.90;;;1.40;71.40;;;;;;4998235;28;20023;-90
2022/01/19 00:11:32;;;;;;;;;;;1.30;71.50;;;;;;4999033;28;20023;-91
2022/01/19 00:13:57;;;;;;;37.97;9.80;;;1.40;71.60;;;;;;5005159;28;19910;-90
2022/01/19 00:16:23;;;;;;;;;;;1.40;71.40;;;;;;4993858;28;20022;-90
2022/01/19 00:18:48;;;;;;;13.57;6.50;;;1.40;71.50;;;;;;4998871;28;19910;-90
2022/01/19 00:21:14;;;;;;;29.63;11.38;;;1.50;71.50;;;;;;5002683;28;20033;-91
2022/01/19 00:23:40;;;;;;;;;;;1.40;71.60;;;;;;4999410;28;20077;-90
2022/01/19 00:26:05;;;;;;;25.57;9.30;;;1.50;71.70;;;;;;4994209;28;19909;-90
2022/01/19 00:28:31;;;;;;;;;;;1.50;71.60;;;;;;4998408;28;20027;-90
2022/01/19 00:30:56;;;;;;;28.87;9.40;;;1.50;71.70;;;;;;4998634;28;19964;-90
2022/01/19 00:33:23;;;;;;;35.75;11.63;;;1.50;71.60;;;;;;4998036;28;20038;-90
2022/01/19 00:35:49;;;;;;;28.20;11.07;;;1.60;71.80;;;;;;4993498;28;20034;-90
2022/01/19 00:38:18;;;;;;;32.17;10.50;;;1.60;71.80;;;;;;4997474;28;20101;-91
2022/01/19 00:40:45;;;;;;;32.77;12.37;;;1.60;71.90;;;;;;4998053;28;20467;-88
2022/01/19 00:43:12;;;;;;;41.30;11.63;;;1.60;71.90;;;;;;4998236;28;20471;-89
2022/01/19 00:45:37;;;;;;;33.53;10.87;;;1.60;72.00;;;;;;5000086;28;20038;-89
2022/01/19 00:48:03;;;;;;;;;;;1.70;72.00;;;;;;4996641;28;20036;-89
2022/01/19 00:50:30;;;;;;;30.07;10.77;;;1.70;72.10;;;;;;5000579;28;19925;-90
2022/01/19 00:52:56;;;;;;;26.83;9.67;;;1.70;71.80;;;;;;4993716;28;20022;-89
2022/01/19 00:55:23;;;;;;;29.90;10.83;;;1.70;72.00;;;;;;4995410;28;20050;-90
2022/01/19 00:57:49;;;;;;;27.63;10.87;;;1.80;72.20;;;;;;4998508;28;20053;-90
2022/01/19 01:00:18;;;;;;;;;;;1.80;72.30;;;;;;4997196;28;20038;-90
2022/01/19 01:02:43;;;;;;;26.73;9.80;;;1.80;72.30;;;;;;4998223;28;19917;-90
2022/01/19 01:05:09;;;;;;;;;;;1.80;72.20;;;;;;4996464;28;20034;-89
2022/01/19 01:07:38;;;;;;;22.30;9.77;;;1.80;72.30;;;;;;4995821;28;19953;-90
2022/01/19 01:10:05;;;;;;;28.37;10.67;;;1.80;72.10;;;;;;4997708;28;20031;-89
2022/01/19 01:12:43;;;;;;;38.43;12.20;;;1.80;72.30;;;;;;4996848;28;20019;-90
2022/01/19 01:18:19;;;;;;;32.87;12.13;;;1.80;72.50;;;;;;4969217;28;20490;-91
2022/01/19 01:20:47;;;;;;;43.67;13.25;;;1.80;72.40;;;;;;4996411;28;20034;-90
2022/01/19 01:23:13;;;;;;;34.40;11.77;;;1.90;72.50;;;;;;4996501;28;20023;-91
2022/01/19 01:25:39;;;;;;;;;;;1.90;72.50;;;;;;4996144;28;20031;-91
2022/01/19 01:28:06;;;;;;;36.87;13.30;;;1.90;72.50;;;;;;4996504;28;20015;-89
2022/01/19 01:30:33;;;;;;;40.77;13.77;;;1.90;72.20;;;;;;4994783;28;20023;-90
2022/01/19 01:32:59;;;;;;;31.40;12.20;;;1.90;72.30;;;;;;4996336;28;20026;-90
2022/01/19 01:35:24;;;;;;;;;;;1.90;72.40;;;;;;4996223;28;20026;-89
2022/01/19 01:37:50;;;;;;;41.17;14.00;;;1.90;72.40;;;;;;5000452;28;19910;-90
2022/01/19 01:40:19;;;;;;;36.58;13.07;;;2.00;72.30;;;;;;4995657;28;20092;-89
2022/01/19 01:42:45;;;;;;;37.50;12.80;;;2.00;72.40;;;;;;4995261;28;20099;-89
2022/01/19 01:45:13;;;;;;;;;;;2.00;72.40;;;;;;4996076;28;20081;-90
2022/01/19 01:47:44;;;;;;;44.20;13.53;;;2.00;72.50;;;;;;4995250;28;19909;-90
2022/01/19 01:55:23;;;;;;;40.50;14.27;;;2.00;72.40;;;;;;4995044;28;19904;-91
2022/01/19 01:57:49;;;;;;;53.03;16.33;;;2.10;72.20;;;;;;4994991;28;20443;-88
2022/01/19 02:00:22;;;;;;;46.20;16.40;;;2.10;72.30;;;;;;4996484;28;20026;-89
2022/01/19 02:02:48;;;;;;;48.07;16.07;;;2.00;72.40;;;;;;4998266;28;20061;-89
2022/01/19 02:05:18;;;;;;;;;;;2.10;72.40;;;;;;5002501;28;20026;-89
2022/01/19 02:08:02;;;;;;;41.30;13.07;;;2.10;72.40;;;;;;4999522;28;19910;-90
2022/01/19 02:11:00;;;;;;;40.03;13.90;;;2.10;72.20;;;;;;4998172;28;20049;-91
2022/01/19 02:16:25;;;;;;;33.27;12.77;;;2.20;72.20;;;;;;5000312;28;20105;-91
2022/01/19 02:22:19;;;;;;;36.90;13.30;;;2.10;72.30;;;;;;5001780;28;20053;-89
2022/01/19 02:24:28;;;;;;;37.70;13.60;;;2.10;72.30;;;;;;4994556;28;20064;-90
2022/01/19 02:27:11;;;;;;;40.90;14.77;;;2.20;72.30;;;;;;4999931;28;20118;-90
2022/01/19 02:40:37;;;;;;;43.97;13.97;;;2.10;72.30;;;;;;5000726;28;20049;-90
2022/01/19 02:51:01;;;;;;;39.33;12.47;;;2.10;72.30;;;;;;4999908;28;20430;-91
2022/01/19 02:53:26;;;;;;;;;;;2.10;72.30;;;;;;5000368;28;20018;-90
2022/01/19 02:55:52;;;;;;;52.10;14.90;;;2.10;72.40;;;;;;5001108;28;19910;-91
2022/01/19 02:58:21;;;;;;;;;;;2.10;72.20;;;;;;4995829;28;20089;-90
2022/01/19 03:08:43;;;;;;;44.07;13.33;;;2.10;72.20;;;;;;5001202;28;20050;-91
2022/01/19 03:09:17;;;;;;;44.80;13.97;;;2.10;72.30;;;;;;5000151;28;20038;-90
2022/01/19 03:11:43;;;;;;;;;;;2.10;72.30;;;;;;5002688;28;20022;-90
2022/01/19 03:14:08;;;;;;;34.87;12.13;;;2.10;72.40;;;;;;5014452;28;19913;-90
2022/01/19 03:16:35;;;;;;;57.05;13.90;;;2.10;72.20;;;;;;5020894;28;20023;-91
2022/01/19 03:19:01;;;;;;;38.80;13.47;;;2.10;72.30;;;;;;5016915;28;20086;-90
2022/01/19 03:21:27;;;;;;;31.67;12.13;;;2.10;72.40;;;;;;5018229;28;20050;-89
2022/01/19 03:23:52;;;;;;;;;;;2.10;72.40;;;;;;5018550;28;20034;-89
2022/01/19 03:26:37;;;;;;;30.00;10.33;;;2.10;72.50;;;;;;5019177;28;19957;-90
2022/01/19 03:29:02;;;;;;;37.20;11.60;;;2.10;72.20;;;;;;5018674;28;20034;-89
2022/01/19 03:31:28;;;;;;;;;;;2.10;72.20;;;;;;5010016;28;20018;-90
2022/01/19 03:33:53;;;;;;;30.57;10.73;;;2.10;72.30;;;;;;5009044;28;19904;-90
2022/01/19 03:36:19;;;;;;;30.05;11.07;;;2.10;72.10;;;;;;5002330;28;20036;-89
2022/01/19 03:38:44;;;;;;;;;;;2.10;72.20;;;;;;5000577;28;20483;-90
2022/01/19 03:41:10;;;;;;;35.17;12.13;;;2.10;72.30;;;;;;5000236;28;19916;-90
2022/01/19 03:43:36;;;;;;;;;;;2.10;72.00;;;;;;5000501;28;20033;-89
2022/01/19 03:46:04;;;;;;;33.77;10.53;;;2.20;72.20;;;;;;4999058;28;20363;-89
2022/01/19 03:48:37;;;;;;;33.80;10.40;;;2.20;72.00;;;;;;4998706;28;20026;-90
2022/01/19 03:51:03;;;;;;;30.40;9.93;;;2.10;72.10;;;;;;4998440;28;20498;-90
2022/01/19 03:53:29;;;;;;;27.57;8.97;;;2.10;72.20;;;;;;4996312;28;20015;-90
2022/01/19 03:55:55;;;;;;;;;;;2.20;72.30;;;;;;4998658;28;20026;-90
2022/01/19 03:58:20;;;;;;;28.90;9.00;;;2.20;72.30;;;;;;4997228;28;19914;-90
2022/01/19 04:00:46;;;;;;;;;;;2.10;72.00;;;;;;4997611;28;20483;-90
2022/01/19 04:03:16;;;;;;;22.50;9.20;;;2.20;72.10;;;;;;4997676;28;20359;-87
2022/01/19 04:06:06;;;;;;;19.17;7.30;;;2.20;71.90;;;;;;4998301;28;20419;-89
2022/01/19 04:08:30;;;;;;;24.13;8.93;;;2.10;72.00;;;;;;4996554;28;20088;-87
2022/01/19 04:10:56;;;;;;;;;;;2.20;72.00;;;;;;4998943;28;20050;-89
2022/01/19 04:13:44;;;;;;;27.60;9.10;;;2.20;72.10;;;;;;4994811;28;19948;-89
2022/01/19 04:16:07;;;;;;;27.30;9.97;;;2.20;71.90;;;;;;4992570;28;20038;-89
2022/01/19 04:18:32;;;;;;;;;;;2.20;71.90;;;;;;4995616;28;20755;-90
2022/01/19 04:21:01;;;;;;;22.20;9.10;;;2.10;72.00;;;;;;4997868;28;19909;-90
2022/01/19 04:23:27;;;;;;;35.30;10.77;;;2.20;71.80;;;;;;4996430;28;20030;-89
2022/01/19 04:25:52;;;;;;;;;;;2.20;71.90;;;;;;4998591;28;20034;-90
2022/01/19 04:28:18;;;;;;;31.83;8.07;;;2.20;72.10;;;;;;4997089;28;19993;-90
2022/01/19 04:30:43;;;;;;;;;;;2.20;71.80;;;;;;4999187;28;20026;-89
2022/01/19 04:33:13;;;;;;;22.33;8.80;;;2.20;71.90;;;;;;4999133;28;20278;-90
2022/01/19 04:35:50;;;;;;;34.33;9.07;;;2.30;71.80;;;;;;4996482;28;20061;-90
2022/01/19 05:03:03;;;;;;;16.90;6.13;;;2.30;70.80;;;;;;4997983;28;20087;-90
2022/01/19 05:05:37;;;;;;;16.90;6.50;;;2.30;70.80;;;;;;4996298;28;20061;-89
2022/01/19 05:08:13;;;;;;;16.70;6.03;;;2.30;70.80;;;;;;4994051;28;20026;-88
2022/01/19 05:15:49;;;;;;;22.00;7.20;;;2.40;70.60;;;;;;4995011;28;20498;-89
2022/01/19 05:18:16;;;;;;;;;;;2.40;70.60;;;;;;4993927;28;20034;-88
2022/01/19 05:20:42;;;;;;;20.95;7.05;;;2.40;70.80;;;;;;4999096;28;19910;-88
2022/01/19 05:23:07;;;;;;;;;;;2.40;70.60;;;;;;4996552;28;20138;-89
2022/01/19 05:25:33;;;;;;;16.57;6.83;;;2.40;70.70;;;;;;4995497;28;19917;-88
2022/01/19 05:27:58;;;;;;;;;;;2.40;70.50;;;;;;4994064;28;20054;-88
2022/01/19 05:30:24;;;;;;;14.43;5.93;;;2.40;70.60;;;;;;4995503;28;19913;-89
2022/01/19 05:32:50;;;;;;;20.45;5.78;;;2.30;70.40;;;;;;4995657;28;20563;-87
2022/01/19 05:35:18;;;;;;;19.25;6.18;;;2.30;70.50;;;;;;4992824;28;20068;-87
2022/01/19 05:37:43;;;;;;;17.93;6.37;;;2.30;70.60;;;;;;4993964;28;20019;-88
2022/01/19 05:40:10;;;;;;;;;;;2.30;70.60;;;;;;4994316;28;20100;-89
2022/01/19 05:42:37;;;;;;;17.17;6.90;;;2.30;70.70;;;;;;4995586;28;20403;-90
2022/01/19 05:45:03;;;;;;;19.43;6.37;;;2.30;70.50;;;;;;4993713;28;20026;-89
2022/01/19 05:47:29;;;;;;;20.83;7.20;;;2.30;70.50;;;;;;4992260;28;20033;-90
2022/01/19 05:49:55;;;;;;;;;;;2.20;70.60;;;;;;4994833;28;20026;-89
2022/01/19 05:52:21;;;;;;;21.50;8.83;;;2.30;70.60;;;;;;4997368;28;19964;-90
2022/01/19 05:54:47;;;;;;;12.70;7.57;;;2.30;70.30;;;;;;4995413;28;20050;-89
2022/01/19 05:57:12;;;;;;;;;;;2.20;70.50;;;;;;4995226;28;20047;-89
2022/01/19 05:59:38;;;;;;;29.43;9.17;;;2.20;70.60;;;;;;4992698;28;19936;-89
2022/01/19 06:02:04;;;;;;;27.73;9.60;;;2.10;70.40;;;;;;4992068;28;20026;-89
2022/01/19 06:04:30;;;;;;;101.70;30.55;;;2.10;70.60;;;;;;5000073;28;20026;-90
2022/01/19 06:06:56;;;;;;;;;;;2.10;70.70;;;;;;4999722;28;20042;-94
2022/01/19 06:11:58;;;;;;;101.72;37.17;;;2.00;70.60;;;;;;4991042;28;20679;-91
2022/01/19 06:14:23;;;;;;;112.78;37.95;;;1.90;70.70;;;;;;4995208;28;20090;-88
2022/01/19 06:16:49;;;;;;;;;;;1.90;70.80;;;;;;4990054;28;20109;-89
2022/01/19 06:19:18;;;;;;;110.93;36.83;;;1.90;70.90;;;;;;4998061;28;19909;-89
2022/01/19 06:21:43;;;;;;;118.90;39.70;;;1.90;70.60;;;;;;4987736;28;20443;-89
2022/01/19 06:24:09;;;;;;;;;;;1.90;70.70;;;;;;4996551;28;20510;-88
2022/01/19 06:26:35;;;;;;;163.47;56.97;;;1.90;70.90;;;;;;4995707;28;19910;-89
2022/01/19 06:29:02;;;;;;;87.90;36.63;;;1.90;70.70;;;;;;4992881;28;20022;-89
2022/01/19 06:31:27;;;;;;;30.37;14.83;;;1.90;70.80;;;;;;4994024;28;20062;-89
2022/01/19 06:33:53;;;;;;;;;;;1.90;70.90;;;;;;4991612;28;20388;-89
2022/01/19 06:36:18;;;;;;;32.03;15.13;;;1.90;70.90;;;;;;5002947;28;19914;-89
2022/01/19 06:38:44;;;;;;;28.85;12.45;;;2.00;70.60;;;;;;4990178;28;20083;-89
2022/01/19 06:41:09;;;;;;;17.77;8.07;;;1.90;70.70;;;;;;4989657;28;20033;-89
2022/01/19 06:43:35;;;;;;;36.95;15.65;;;1.90;70.70;;;;;;4991846;28;20447;-89
2022/01/19 06:46:01;;;;;;;25.50;15.75;;;1.80;70.80;;;;;;4995036;28;20022;-88
2022/01/19 06:48:26;;;;;;;;;;;1.60;71.10;;;;;;4999638;28;20029;-88
2022/01/19 06:50:52;;;;;;;34.73;20.50;;;1.50;71.30;;;;;;4996715;28;20006;-88
2022/01/19 06:53:17;;;;;;;;;;;1.40;71.30;;;;;;5000227;28;20522;-89
2022/01/19 06:55:43;;;;;;;25.70;14.07;;;1.30;71.60;;;;;;4998318;28;19914;-89
2022/01/19 06:58:08;;;;;;;;;;;1.30;71.50;;;;;;4995011;28;20423;-94
2022/01/19 07:00:34;;;;;;;31.70;14.77;;;1.20;71.70;;;;;;4997415;28;19989;-83
2022/01/19 07:02:59;;;;;;;38.88;12.52;;;1.10;71.60;;;;;;4995940;28;20105;-87
2022/01/19 07:05:25;;;;;;;32.95;12.77;;;1.00;71.90;;;;;;4996598;28;20022;-87
2022/01/19 07:07:54;;;;;;;;;;;0.90;72.10;;;;;;4998523;28;20032;-82
2022/01/19 07:10:20;;;;;;;33.90;12.97;;;0.80;72.20;;;;;;5010978;28;19945;-82
2022/01/19 07:12:45;;;;;;;;;;;0.80;72.00;;;;;;5011812;28;20049;-84
2022/01/19 07:15:11;;;;;;;27.53;10.07;;;0.80;72.20;;;;;;5014196;28;19945;-84
2022/01/19 07:17:37;;;;;;;;;;;0.80;72.10;;;;;;5023592;28;20034;-82
2022/01/19 07:20:03;;;;;;;19.77;8.23;;;0.80;72.20;;;;;;5014084;28;19997;-84
2022/01/19 07:22:29;;;;;;;16.80;6.37;;;0.80;72.10;;;;;;5007160;28;20026;-85
2022/01/19 07:24:54;;;;;;;;;;;0.80;72.20;;;;;;5004041;28;20137;-84
2022/01/19 07:27:20;;;;;;;20.47;7.57;;;0.80;72.30;;;;;;5004243;28;19909;-84
2022/01/19 07:29:46;;;;;;;22.17;7.57;;;0.80;72.10;;;;;;5000486;28;20053;-83
2022/01/19 07:32:12;;;;;;;19.50;6.50;;;0.80;72.20;;;;;;4996635;28;20026;-83
2022/01/19 07:34:38;;;;;;;15.20;7.13;;;0.80;72.20;;;;;;4996235;28;20033;-85
2022/01/19 07:37:03;;;;;;;;;;;0.80;72.20;;;;;;4997237;28;20395;-84
2022/01/19 07:39:29;;;;;;;10.93;4.30;;;0.80;72.20;;;;;;4997775;28;20264;-84
2022/01/19 07:41:55;;;;;;;11.52;4.25;;;0.90;72.00;;;;;;4998438;28;20034;-84
2022/01/19 07:44:22;;;;;;;15.33;6.67;;;0.90;72.00;;;;;;4995293;28;20431;-84
2022/01/19 07:46:48;;;;;;;15.47;6.07;;;0.90;72.00;;;;;;4991657;28;20022;-85
2022/01/19 07:49:14;;;;;;;;;;;1.00;72.00;;;;;;4994181;28;20045;-84
2022/01/19 07:51:39;;;;;;;26.27;7.90;;;1.00;72.00;;;;;;4996512;28;19909;-84
2022/01/19 07:54:05;;;;;;;;;;;1.00;71.70;;;;;;4996453;28;20426;-83
2022/01/19 07:56:31;;;;;;;23.47;6.67;;;1.10;71.80;;;;;;4991250;28;20000;-84
2022/01/19 07:58:56;;;;;;;;;;;1.10;71.60;;;;;;4994763;28;20451;-81
2022/01/19 08:01:22;;;;;;;25.07;6.67;;;1.20;71.70;;;;;;4995873;28;19960;-80
2022/01/19 08:03:47;;;;;;;21.88;8.55;;;1.30;71.50;;;;;;4989575;28;20058;-80
2022/01/19 08:06:13;;;;;;;;;;;1.30;71.50;;;;;;4994070;28;20114;-80
2022/01/19 08:08:39;;;;;;;26.30;8.60;;;1.30;71.60;;;;;;4993938;28;19916;-83
2022/01/19 08:11:04;;;;;;;;;;;1.30;71.40;;;;;;4993778;28;20041;-82
2022/01/19 08:13:30;;;;;;;31.67;9.33;;;1.40;71.50;;;;;;4996012;28;19914;-83
2022/01/19 08:15:55;;;;;;;;;;;1.40;71.20;;;;;;4998649;28;20080;-83
2022/01/19 08:18:21;;;;;;;11.37;5.07;;;1.40;71.20;;;;;;4992210;28;19910;-84
2022/01/19 08:20:47;;;;;;;;;;;1.50;71.00;;;;;;5000638;28;20041;-84
2022/01/19 08:23:12;;;;;;;12.33;5.83;;;1.40;71.10;;;;;;4994409;28;19996;-84
2022/01/19 08:25:38;;;;;;;;;;;1.50;71.10;;;;;;4996913;28;20052;-83
2022/01/19 08:28:04;;;;;;;31.23;11.37;;;1.50;71.30;;;;;;4992351;28;19905;-84
2022/01/19 08:30:30;;;;;;;;;;;1.50;71.20;;;;;;4993284;28;20050;-83
2022/01/19 08:32:55;;;;;;;29.80;10.90;;;1.50;71.30;;;;;;4992912;28;19914;-83
2022/01/19 08:35:21;;;;;;;31.02;10.38;;;1.60;71.10;;;;;;4992971;28;20023;-84
2022/01/19 08:37:47;;;;;;;17.25;7.55;;;1.50;71.20;;;;;;4992636;28;20093;-83
2022/01/19 08:40:13;;;;;;;;;;;1.60;71.20;;;;;;4994247;28;20030;-84
2022/01/19 08:42:39;;;;;;;21.00;9.47;;;1.60;71.20;;;;;;4993003;28;19914;-83
2022/01/19 08:45:08;;;;;;;;;;;1.70;71.00;;;;;;4994419;28;20026;-84
2022/01/19 08:47:36;;;;;;;14.70;6.03;;;1.70;71.00;;;;;;4989908;28;19910;-85
2022/01/19 08:50:04;;;;;;;9.83;5.70;;;1.70;70.80;;;;;;4994010;28;20043;-84
2022/01/19 08:52:29;;;;;;;9.83;3.83;;;1.60;70.80;;;;;;4994310;28;20076;-84
2022/01/19 08:54:55;;;;;;;;;;;1.70;70.60;;;;;;4994122;28;20022;-84
2022/01/19 08:57:21;;;;;;;10.47;5.03;;;1.70;70.50;;;;;;4993391;28;20012;-85
2022/01/19 08:59:46;;;;;;;;;;;1.70;70.20;;;;;;4993914;28;20034;-85
2022/01/19 09:02:12;;;;;;;18.13;6.07;;;1.80;70.30;;;;;;4992708;28;19909;-85
2022/01/19 09:04:37;;;;;;;;;;;1.80;70.00;;;;;;4994076;28;20121;-85
2022/01/19 09:07:03;;;;;;;13.97;4.47;;;1.80;70.20;;;;;;4993603;28;20000;-85
2022/01/19 09:09:29;;;;;;;24.48;8.73;;;1.90;69.90;;;;;;4992689;28;20056;-85
2022/01/19 09:11:54;;;;;;;;;;;1.80;69.90;;;;;;4989422;28;20029;-85
2022/01/19 09:14:20;;;;;;;13.93;4.87;;;1.90;69.90;;;;;;4994305;28;22014;-84
2022/01/19 09:16:49;;;;;;;;;;;2.00;69.60;;;;;;4991868;28;20072;-85
2022/01/19 09:19:16;;;;;;;18.23;5.37;;;2.00;69.40;;;;;;4994505;28;19910;-85
2022/01/19 09:21:41;;;;;;;18.00;7.40;;;2.00;68.90;;;;;;4993281;28;20038;-84
2022/01/19 09:24:09;;;;;;;;;;;2.10;68.70;;;;;;4994056;28;20022;-84
2022/01/19 09:26:35;;;;;;;11.50;5.13;;;2.10;68.90;;;;;;4995542;28;20004;-84
2022/01/19 09:29:00;;;;;;;;;;;2.10;68.80;;;;;;4993980;28;20053;-84
2022/01/19 09:31:26;;;;;;;14.97;6.03;;;2.20;68.90;;;;;;4992499;28;20367;-85
2022/01/19 09:34:06;;;;;;;;;;;2.30;68.80;;;;;;4996332;28;20537;-85
2022/01/19 09:36:34;;;;;;;18.23;5.37;;;2.30;68.70;;;;;;4990734;28;20414;-84
2022/01/19 09:39:01;;;;;;;21.50;8.03;;;2.40;68.20;;;;;;4993211;28;20475;-84
2022/01/19 09:41:27;;;;;;;20.27;6.93;;;2.40;68.00;;;;;;4993362;28;20030;-84
2022/01/19 09:43:52;;;;;;;;;;;2.40;68.20;;;;;;4993693;28;20554;-85
2022/01/19 09:46:18;;;;;;;18.87;6.60;;;2.50;68.20;;;;;;4988089;28;20319;-84
2022/01/19 09:48:43;;;;;;;22.50;6.97;;;2.60;67.80;;;;;;4989198;28;20041;-84
2022/01/19 09:51:09;;;;;;;21.08;9.10;;;2.60;67.90;;;;;;4989890;28;20030;-85
2022/01/19 09:53:35;;;;;;;;;;;2.70;67.70;;;;;;4995009;28;20018;-86
2022/01/19 09:56:03;;;;;;;14.43;4.90;;;2.80;67.70;;;;;;4993056;28;20007;-86
2022/01/19 09:58:28;;;;;;;18.63;6.53;;;3.00;67.00;;;;;;4993283;28;20034;-85
2022/01/19 10:00:54;;;;;;;;;;;3.00;66.80;;;;;;4989424;28;20443;-86
2022/01/19 10:03:21;;;;;;;10.27;4.20;;;3.10;66.70;;;;;;4994486;28;19910;-87
2022/01/19 10:06:03;;;;;;;19.43;7.53;;;3.30;66.60;;;;;;4992033;28;20102;-87
2022/01/19 10:08:48;;;;;;;16.53;5.87;;;3.30;66.50;;;;;;4995076;28;20165;-87
2022/01/19 10:11:27;;;;;;;15.17;5.93;;;3.50;66.50;;;;;;5011089;28;20062;-86
2022/01/19 10:17:06;;;;;;;17.00;6.30;;;4.40;65.10;;;;;;4994470;28;20037;-86
2022/01/19 10:19:39;;;;;;;14.18;6.07;;;5.40;63.10;;;;;;5014300;28;20026;-87
2022/01/19 10:22:04;;;;;;;15.27;6.57;;;6.30;60.90;;;;;;4996919;28;20032;-86
2022/01/19 10:24:39;;;;;;;;;;;7.30;59.60;;;;;;4999018;28;20491;-87
2022/01/19 10:27:18;;;;;;;19.53;8.43;;;8.00;57.70;;;;;;5009465;28;19910;-86
2022/01/19 10:29:44;;;;;;;18.77;7.97;;;8.70;56.50;;;;;;4997238;28;20042;-87
2022/01/19 10:32:09;;;;;;;;;;;9.30;55.20;;;;;;5001437;28;20121;-87
2022/01/19 10:34:35;;;;;;;26.88;12.32;;;9.70;53.60;;;;;;5001518;28;20015;-87
2022/01/19 10:37:02;;;;;;;;;;;10.10;52.30;;;;;;4999281;28;20019;-85
2022/01/19 10:39:51;;;;;;;22.63;11.25;;;10.50;51.30;;;;;;5005042;28;19909;-87
2022/01/19 10:42:26;;;;;;;19.95;8.90;;;10.90;51.10;;;;;;5005755;28;20475;-86
2022/01/19 10:44:58;;;;;;;18.08;6.32;;;11.50;50.60;;;;;;4999572;28;20509;-86
2022/01/19 10:47:44;;;;;;;18.77;8.52;;;12.00;48.40;;;;;;5001143;28;20029;-87
2022/01/19 10:50:14;;;;;;;16.08;6.82;;;12.40;47.40;;;;;;5000072;28;20053;-88
2022/01/19 10:52:43;;;;;;;15.50;7.25;;;12.80;47.50;;;;;;5002727;28;20026;-86
2022/01/19 10:55:29;;;;;;;18.15;9.00;;;13.00;46.20;;;;;;5008892;28;20069;-86
2022/01/19 10:57:56;;;;;;;33.93;15.23;;;12.90;44.90;;;;;;5014196;28;20038;-87
2022/01/19 11:00:33;;;;;;;15.63;6.97;;;12.80;45.60;;;;;;5012803;28;20006;-88
2022/01/19 11:03:17;;;;;;;17.63;7.88;;;12.80;44.30;;;;;;5017364;28;20022;-88
2022/01/19 11:05:58;;;;;;;15.68;8.82;;;12.50;44.30;;;;;;5016087;28;20022;-88
2022/01/19 11:08:29;;;;;;;18.00;8.50;;;12.20;44.30;;;;;;5020200;28;20014;-87
2022/01/19 11:10:57;;;;;;;13.43;6.22;;;11.90;44.70;;;;;;5019267;28;20106;-86
2022/01/19 11:13:53;;;;;;;12.65;6.63;;;11.50;44.50;;;;;;5014025;28;20078;-85
2022/01/19 11:16:12;;;;;;;18.20;8.40;;;11.00;45.20;;;;;;5019036;28;20034;-85
2022/01/19 11:18:39;;;;;;;;;;;10.50;45.30;;;;;;5006124;28;20109;-86
2022/01/19 11:21:09;;;;;;;20.80;9.10;;;10.10;45.70;;;;;;4998830;28;19917;-87
2022/01/19 11:23:52;;;;;;;26.50;11.65;;;9.60;46.10;;;;;;4983113;28;20126;-88
2022/01/19 11:26:22;;;;;;;25.23;10.27;;;9.30;47.00;;;;;;4995073;28;20110;-85
2022/01/19 11:28:49;;;;;;;27.13;9.77;;;9.00;47.40;;;;;;5002670;28;20033;-87
2022/01/19 11:31:37;;;;;;;19.08;9.55;;;8.70;47.70;;;;;;5003164;28;20030;-87
2022/01/19 11:37:39;;;;;;;24.33;11.00;;;8.50;48.60;;;;;;4982453;28;20754;-87
2022/01/19 11:40:12;;;;;;;20.98;9.73;;;8.50;48.50;;;;;;4995792;28;20519;-87
2022/01/19 11:42:39;;;;;;;15.32;9.77;;;8.40;48.70;;;;;;4992921;28;20026;-86
2022/01/19 11:45:08;;;;;;;18.65;8.95;;;8.20;49.30;;;;;;4997109;28;20050;-87
2022/01/19 11:47:34;;;;;;;19.27;8.90;;;8.00;49.90;;;;;;4996925;28;20110;-86
2022/01/19 11:50:11;;;;;;;;;;;7.90;50.10;;;;;;4998865;28;20028;-86
2022/01/19 11:52:39;;;;;;;15.15;7.75;;;7.80;50.40;;;;;;4999732;28;19956;-87
2022/01/19 11:55:18;;;;;;;17.88;8.90;;;7.70;50.60;;;;;;5006180;28;20412;-87
2022/01/19 11:58:20;;;;;;;17.20;8.17;;;7.60;51.00;;;;;;5003484;28;20543;-86
2022/01/19 12:00:51;;;;;;;16.48;7.53;;;7.50;51.40;;;;;;4997267;28;20031;-87
2022/01/19 12:03:22;;;;;;;23.13;8.68;;;7.50;51.50;;;;;;4996374;28;20018;-87
2022/01/19 12:05:50;;;;;;;17.03;7.60;;;7.30;51.70;;;;;;4996170;28;20121;-86
2022/01/19 12:08:28;;;;;;;21.07;9.17;;;7.20;51.90;;;;;;4996385;28;20487;-86
2022/01/19 12:10:57;;;;;;;16.80;7.60;;;7.10;52.20;;;;;;4996972;28;20038;-85
2022/01/19 12:16:19;;;;;;;13.30;6.20;;;7.10;52.50;;;;;;4994276;28;20034;-88
2022/01/19 12:18:49;;;;;;;13.60;7.33;;;7.30;52.30;;;;;;4985540;28;20559;-86
2022/01/19 12:21:36;;;;;;;15.43;7.63;;;7.70;51.80;;;;;;4992378;28;20061;-86
2022/01/19 12:24:15;;;;;;;;;;;8.10;51.20;;;;;;5014149;28;20026;-86
2022/01/19 12:26:49;;;;;;;15.88;7.85;;;8.60;50.30;;;;;;5002259;28;20351;-86
2022/01/19 12:29:33;;;;;;;13.07;7.75;;;9.00;49.50;;;;;;4996001;28;20121;-86
2022/01/19 12:32:01;;;;;;;14.80;7.32;;;9.40;48.80;;;;;;5009027;28;20034;-86
2022/01/19 12:34:46;;;;;;;22.67;11.10;;;9.60;48.50;;;;;;4998404;28;20487;-86
2022/01/19 12:37:33;;;;;;;16.42;7.97;;;9.90;48.20;;;;;;5001152;28;20022;-87
2022/01/19 12:40:02;;;;;;;17.38;8.70;;;10.40;47.40;;;;;;4997120;28;20045;-87
2022/01/19 12:42:48;;;;;;;16.00;8.13;;;11.10;46.60;;;;;;5010652;28;20084;-87
2022/01/19 12:45:21;;;;;;;16.90;8.35;;;11.70;45.30;;;;;;4994943;28;20456;-86
2022/01/19 12:47:50;;;;;;;18.85;8.75;;;12.30;44.70;;;;;;4995578;28;20046;-85
2022/01/19 12:50:23;;;;;;;21.70;8.95;;;12.80;43.40;;;;;;4995990;28;20435;-86
2022/01/19 12:52:53;;;;;;;12.23;7.68;;;13.30;42.60;;;;;;4995134;28;20035;-86
2022/01/19 12:55:26;;;;;;;16.08;9.05;;;13.70;41.60;;;;;;4995683;28;20109;-86
2022/01/19 12:57:54;;;;;;;19.88;10.57;;;13.90;41.30;;;;;;4999895;28;20081;-87
2022/01/19 13:00:31;;;;;;;21.20;12.05;;;14.10;41.20;;;;;;4995455;28;20030;-86
2022/01/19 13:02:58;;;;;;;16.90;8.85;;;14.30;40.70;;;;;;4995668;28;20042;-86
2022/01/19 13:05:29;;;;;;;15.13;8.65;;;14.60;40.20;;;;;;4996413;28;20037;-86
2022/01/19 13:08:00;;;;;;;19.35;9.93;;;14.70;40.00;;;;;;4995878;28;20054;-86
2022/01/19 13:13:11;;;;;;;21.13;10.77;;;13.30;40.00;;;;;;4998042;28;20052;-86
2022/01/19 13:15:46;;;;;;;21.45;11.40;;;12.30;41.20;;;;;;4997116;28;20054;-84
2022/01/19 13:18:27;;;;;;;22.38;10.68;;;11.40;42.60;;;;;;4996242;28;20042;-87
2022/01/19 13:20:55;;;;;;;18.20;8.23;;;10.80;43.60;;;;;;4988547;28;20019;-85
2022/01/19 13:23:21;;;;;;;18.15;9.18;;;10.20;44.40;;;;;;4979703;28;20117;-86
2022/01/19 13:26:19;;;;;;;;;;;9.60;45.20;;;;;;4997007;28;20022;-87
2022/01/19 13:28:45;;;;;;;14.77;7.70;;;9.20;45.80;;;;;;4962302;28;19937;-86
2022/01/19 13:31:20;;;;;;;19.58;9.13;;;8.60;46.40;;;;;;4996308;28;20533;-87
2022/01/19 13:34:01;;;;;;;23.50;10.88;;;8.30;47.30;;;;;;4996546;28;20022;-87
2022/01/19 13:36:32;;;;;;;26.35;12.40;;;7.80;48.00;;;;;;4995747;28;20110;-86
2022/01/19 13:38:58;;;;;;;29.25;11.43;;;7.50;48.50;;;;;;4991846;28;20022;-86
2022/01/19 13:41:25;;;;;;;23.45;9.93;;;7.30;49.20;;;;;;4992633;28;20051;-87
2022/01/19 13:43:52;;;;;;;28.95;11.05;;;7.00;49.80;;;;;;4995510;28;20037;-87
2022/01/19 13:46:29;;;;;;;22.80;11.50;;;6.80;50.30;;;;;;4993608;28;20105;-88
2022/01/19 13:48:58;;;;;;;35.93;14.20;;;6.50;50.80;;;;;;4995643;28;20030;-86
2022/01/19 13:51:26;;;;;;;24.00;10.57;;;6.30;51.30;;;;;;4995848;28;20030;-87
2022/01/19 13:53:53;;;;;;;33.83;13.17;;;6.20;51.70;;;;;;4994264;28;20026;-85
2022/01/19 13:56:38;;;;;;;23.00;10.40;;;6.10;52.10;;;;;;4990486;28;20364;-86
2022/01/19 13:59:14;;;;;;;35.70;13.40;;;5.90;52.50;;;;;;4992648;28;20042;-87
2022/01/19 14:01:51;;;;;;;29.83;11.73;;;5.80;52.80;;;;;;4989451;28;20030;-86
2022/01/19 14:04:17;;;;;;;35.90;15.53;;;5.60;53.10;;;;;;4988836;28;20026;-86
2022/01/19 14:06:45;;;;;;;;;;;5.60;53.30;;;;;;4982783;28;20042;-86
2022/01/19 14:09:15;;;;;;;34.67;14.47;;;5.50;53.40;;;;;;4995394;28;19932;-86
2022/01/19 14:11:46;;;;;;;33.60;13.77;;;5.40;53.50;;;;;;4994368;28;20038;-87
2022/01/19 14:14:26;;;;;;;22.27;10.57;;;5.40;53.90;;;;;;4999727;28;20088;-86
2022/01/19 14:16:55;;;;;;;24.03;9.93;;;5.30;54.10;;;;;;4995090;28;20029;-86
2022/01/19 14:19:32;;;;;;;21.87;10.47;;;5.20;54.40;;;;;;4996190;28;20092;-86
2022/01/19 14:22:15;;;;;;;30.03;12.20;;;5.10;54.80;;;;;;4993840;28;20478;-88
2022/01/19 14:24:45;;;;;;;25.87;13.00;;;5.00;55.10;;;;;;4996963;28;20118;-87
2022/01/19 14:27:12;;;;;;;22.70;10.80;;;5.00;55.10;;;;;;4988505;28;20022;-84
2022/01/19 14:29:56;;;;;;;20.67;10.63;;;4.90;55.50;;;;;;5003405;28;20038;-84
2022/01/19 14:32:43;;;;;;;26.90;11.57;;;4.90;55.90;;;;;;5004499;28;20022;-83
2022/01/19 14:35:24;;;;;;;23.10;11.52;;;4.90;56.00;;;;;;5012559;28;20030;-83
2022/01/19 14:38:08;;;;;;;26.00;12.00;;;4.80;56.10;;;;;;5012717;28;20035;-83